createdAt,value
2018-07-15T00:00:07.777Z,57.52
2018-07-15T00:02:13.757Z,58.10
2018-07-15T00:04:18.896Z,57.84
2018-07-15T00:06:23.463Z,58.00
2018-07-15T00:08:28.877Z,57.91
2018-07-15T00:10:47.170Z,58.65
2018-07-15T00:12:52.616Z,58.09
2018-07-15T00:14:57.591Z,58.78
2018-07-15T00:17:04.109Z,58.69
2018-07-15T00:19:09.223Z,58.49
2018-07-15T00:21:13.955Z,59.39
2018-07-15T00:23:18.950Z,58.70
2018-07-15T00:25:23.994Z,58.85
2018-07-15T00:27:29.341Z,59.05
2018-07-15T00:29:34.490Z,59.13
2018-07-15T00:31:39.735Z,59.46
2018-07-15T00:33:45.312Z,59.58
2018-07-15T00:35:50.108Z,59.08
2018-07-15T00:37:54.959Z,59.39
2018-07-15T00:39:59.800Z,60.23
2018-07-15T00:42:04.580Z,60.62
2018-07-15T00:44:09.717Z,60.59
2018-07-15T00:46:17.285Z,60.54
2018-07-15T00:48:22.203Z,60.12
2018-07-15T00:50:27.095Z,60.23
2018-07-15T00:52:32.036Z,60.24
2018-07-15T00:54:36.940Z,60.59
2018-07-15T00:56:41.636Z,60.60
2018-07-15T00:58:46.372Z,61.21
2018-07-15T01:00:56.110Z,61.50
2018-07-15T01:03:00.879Z,61.81
2018-07-15T01:05:05.768Z,61.35
2018-07-15T01:07:10.547Z,61.82
2018-07-15T01:09:15.324Z,61.50
2018-07-15T01:11:20.008Z,62.01
2018-07-15T01:13:24.589Z,62.22
2018-07-15T01:15:29.233Z,62.47
2018-07-15T01:17:34.001Z,62.59
2018-07-15T01:19:38.769Z,62.50
2018-07-15T01:21:44.980Z,62.71
2018-07-15T01:23:49.758Z,63.25
2018-07-15T01:25:54.672Z,63.03
2018-07-15T01:27:59.566Z,63.47
2018-07-15T01:30:04.381Z,63.26
2018-07-15T01:32:09.117Z,62.68
2018-07-15T01:34:13.815Z,63.29
2018-07-15T01:36:18.643Z,63.79
2018-07-15T01:38:23.450Z,63.81
2018-07-15T01:40:28.232Z,63.58
2018-07-15T01:42:32.987Z,63.54
2018-07-15T01:44:37.704Z,63.80
2018-07-15T01:46:42.430Z,63.91
2018-07-15T01:48:47.156Z,64.13
2018-07-15T01:50:52.025Z,64.01
2018-07-15T01:52:56.789Z,63.48
2018-07-15T01:55:01.538Z,64.02
2018-07-15T01:57:06.330Z,64.53
2018-07-15T01:59:11.879Z,64.46
2018-07-15T02:01:16.730Z,64.91
2018-07-15T02:03:21.590Z,64.85
2018-07-15T02:05:26.242Z,64.83
2018-07-15T02:07:30.914Z,65.14
2018-07-15T02:09:35.793Z,64.72
2018-07-15T02:11:40.498Z,64.97
2018-07-15T02:13:45.319Z,65.21
2018-07-15T02:15:50.388Z,65.47
2018-07-15T02:17:55.410Z,65.26
2018-07-15T02:20:00.254Z,64.96
2018-07-15T02:22:05.030Z,65.63
2018-07-15T02:24:09.871Z,65.94
2018-07-15T02:26:14.589Z,65.54
2018-07-15T02:28:19.344Z,66.22
2018-07-15T02:30:24.068Z,66.54
2018-07-15T02:32:28.757Z,66.37
2018-07-15T02:34:33.523Z,66.91
2018-07-15T02:36:38.316Z,66.83
2018-07-15T02:38:43.029Z,67.15
2018-07-15T02:40:47.754Z,66.83
2018-07-15T02:42:52.483Z,66.97
2018-07-15T02:44:57.169Z,67.25
2018-07-15T02:47:01.885Z,66.86
2018-07-15T02:49:06.894Z,66.74
2018-07-15T02:51:11.695Z,66.98
2018-07-15T02:53:16.438Z,67.43
2018-07-15T02:55:21.244Z,66.88
2018-07-15T02:57:25.931Z,67.33
2018-07-15T02:59:30.715Z,67.51
2018-07-15T03:01:35.419Z,67.69
2018-07-15T03:03:40.282Z,67.20
2018-07-15T03:05:45.095Z,67.58
2018-07-15T03:07:49.833Z,67.38
2018-07-15T03:09:54.563Z,66.71
2018-07-15T03:11:59.323Z,67.50
2018-07-15T03:14:04.069Z,67.57
2018-07-15T03:16:08.764Z,67.54
2018-07-15T03:18:13.489Z,67.98
2018-07-15T03:20:18.202Z,68.10
2018-07-15T03:22:22.976Z,69.28
2018-07-15T03:24:27.610Z,69.05
2018-07-15T03:26:32.251Z,68.52
2018-07-15T03:28:37.035Z,68.85
2018-07-15T03:30:41.777Z,68.84
2018-07-15T03:32:46.482Z,69.19
2018-07-15T03:34:51.282Z,68.83
2018-07-15T03:36:56.035Z,69.26
2018-07-15T03:39:00.761Z,69.28
2018-07-15T03:41:05.494Z,68.59
2018-07-15T03:43:10.268Z,68.95
2018-07-15T03:45:14.985Z,69.73
2018-07-15T03:47:19.726Z,69.00
2018-07-15T03:49:24.406Z,69.73
2018-07-15T03:51:29.169Z,69.33
2018-07-15T03:53:33.868Z,69.29
2018-07-15T03:55:38.550Z,69.15
2018-07-15T03:57:43.275Z,69.16
2018-07-15T03:59:47.999Z,69.84
2018-07-15T04:01:52.818Z,69.76
2018-07-15T04:03:58.140Z,69.61
2018-07-15T04:06:02.968Z,69.93
2018-07-15T04:08:07.702Z,70.11
2018-07-15T04:10:12.462Z,70.47
2018-07-15T04:12:17.269Z,70.52
2018-07-15T04:14:22.160Z,70.91
2018-07-15T04:16:26.899Z,70.61
2018-07-15T04:18:31.888Z,70.81
2018-07-15T04:20:37.725Z,70.81
2018-07-15T04:22:42.627Z,71.14
2018-07-15T04:24:47.679Z,70.80
2018-07-15T04:26:52.555Z,70.77
2018-07-15T04:28:57.600Z,71.54
2018-07-15T04:31:02.314Z,71.04
2018-07-15T04:33:07.834Z,71.09
2018-07-15T04:35:13.054Z,71.04
2018-07-15T04:37:18.160Z,70.74
2018-07-15T04:39:23.190Z,71.64
2018-07-15T04:41:28.026Z,71.13
2018-07-15T04:43:33.243Z,70.95
2018-07-15T04:45:38.219Z,71.26
2018-07-15T04:47:43.330Z,71.06
2018-07-15T04:49:48.287Z,71.30
2018-07-15T04:51:53.187Z,71.31
2018-07-15T04:53:57.917Z,71.49
2018-07-15T04:56:02.656Z,71.27
2018-07-15T04:58:07.826Z,71.08
2018-07-15T05:00:12.700Z,71.27
2018-07-15T05:02:17.664Z,70.84
2018-07-15T05:04:22.534Z,70.16
2018-07-15T05:06:27.602Z,70.54
2018-07-15T05:08:32.511Z,70.70
2018-07-15T05:10:37.480Z,69.85
2018-07-15T05:12:42.169Z,69.94
2018-07-15T05:14:46.988Z,69.83
2018-07-15T05:16:51.736Z,69.44
2018-07-15T05:18:56.469Z,69.15
2018-07-15T05:21:01.217Z,69.17
2018-07-15T05:23:06.752Z,69.28
2018-07-15T05:25:11.530Z,68.78
2018-07-15T05:27:17.268Z,68.56
2018-07-15T05:29:22.754Z,68.64
2018-07-15T05:31:27.589Z,67.98
2018-07-15T05:33:32.516Z,68.46
2018-07-15T05:35:37.366Z,67.84
2018-07-15T05:37:42.169Z,67.79
2018-07-15T05:39:46.966Z,67.11
2018-07-15T05:41:52.003Z,67.33
2018-07-15T05:43:56.962Z,67.32
2018-07-15T05:46:01.753Z,67.28
2018-07-15T05:48:06.505Z,67.13
2018-07-15T05:50:12.299Z,67.89
2018-07-15T05:52:17.276Z,67.52
2018-07-15T05:54:23.261Z,67.61
2018-07-15T05:56:28.691Z,67.13
2018-07-15T05:58:33.951Z,66.80
2018-07-15T06:00:38.864Z,66.09
2018-07-15T06:02:43.665Z,65.71
2018-07-15T06:06:49.911Z,65.88
2018-07-15T06:08:55.656Z,65.61
2018-07-15T06:11:02.103Z,65.96
2018-07-15T06:13:07.904Z,65.50
2018-07-15T06:15:13.659Z,65.03
2018-07-15T06:17:20.603Z,65.19
2018-07-15T06:19:26.322Z,65.15
2018-07-15T06:21:32.645Z,65.86
2018-07-15T06:23:39.408Z,65.88
2018-07-15T06:25:45.330Z,65.85
2018-07-15T06:27:51.269Z,66.46
2018-07-15T06:29:57.398Z,66.23
2018-07-15T06:32:03.703Z,66.04
2018-07-15T06:34:09.877Z,65.98
2018-07-15T06:36:15.965Z,65.17
2018-07-15T06:38:23.980Z,65.16
2018-07-15T06:40:30.342Z,64.79
2018-07-15T06:42:36.652Z,63.99
2018-07-15T06:44:44.614Z,63.99
2018-07-15T06:46:50.560Z,63.42
2018-07-15T06:48:57.294Z,63.71
2018-07-15T06:51:04.341Z,62.54
2018-07-15T06:53:10.560Z,61.92
2018-07-15T06:55:17.185Z,62.33
2018-07-15T06:57:23.470Z,61.85
2018-07-15T06:59:29.362Z,61.44
2018-07-15T07:01:34.807Z,60.95
2018-07-15T07:03:40.878Z,60.54
2018-07-15T07:05:47.368Z,59.19
2018-07-15T07:07:53.526Z,59.16
2018-07-15T07:09:59.319Z,58.81
2018-07-15T07:12:04.884Z,59.22
2018-07-15T07:14:11.436Z,59.32
2018-07-15T07:16:17.911Z,57.27
2018-07-15T07:18:24.560Z,57.40
2018-07-15T07:20:32.539Z,56.78
2018-07-15T07:22:39.420Z,56.06
2018-07-15T07:24:47.707Z,54.83
2018-07-15T07:26:58.382Z,54.16
2018-07-15T07:29:04.575Z,53.86
2018-07-15T07:31:11.468Z,53.76
2018-07-15T07:33:18.237Z,53.07
2018-07-15T07:35:25.144Z,53.42
2018-07-15T07:37:31.984Z,52.48
2018-07-15T07:39:40.080Z,53.59
2018-07-15T07:41:47.517Z,53.22
2018-07-15T07:43:54.159Z,52.27
2018-07-15T07:46:01.590Z,50.68
2018-07-15T07:48:08.213Z,49.45
2018-07-15T07:50:14.325Z,50.44
2018-07-15T07:52:21.446Z,49.26
2018-07-15T07:54:29.049Z,48.06
2018-07-15T07:56:35.647Z,46.59
2018-07-15T07:58:42.134Z,45.62
2018-07-15T08:00:48.112Z,46.30
2018-07-15T08:02:54.018Z,46.71
2018-07-15T08:05:00.456Z,46.95
2018-07-15T08:07:06.766Z,45.52
2018-07-15T08:09:13.256Z,45.21
2018-07-15T08:11:19.926Z,44.41
2018-07-15T08:13:29.054Z,41.62
2018-07-15T08:15:35.459Z,41.54
2018-07-15T08:17:42.042Z,43.51
2018-07-15T08:19:48.036Z,42.75
2018-07-15T08:21:54.828Z,42.11
2018-07-15T08:24:04.536Z,41.94
2018-07-15T08:26:10.734Z,42.44
2018-07-15T08:28:17.007Z,42.65
2018-07-15T08:30:39.229Z,43.87
2018-07-15T08:32:45.786Z,43.86
2018-07-15T08:34:51.873Z,45.20
2018-07-15T08:36:58.761Z,44.13
2018-07-15T08:39:04.756Z,45.35
2018-07-15T08:41:11.993Z,44.59
2018-07-15T08:43:18.844Z,44.44
2018-07-15T08:45:25.563Z,43.23
2018-07-15T08:47:31.820Z,43.43
2018-07-15T08:49:38.502Z,42.42
2018-07-15T08:51:45.139Z,42.33
2018-07-15T08:53:54.245Z,42.89
2018-07-15T08:56:02.166Z,43.22
2018-07-15T08:58:12.424Z,43.61
2018-07-15T09:00:18.959Z,42.07
2018-07-15T09:02:31.873Z,41.98
2018-07-15T09:04:41.318Z,41.42
2018-07-15T09:06:50.044Z,40.81
2018-07-15T09:08:57.325Z,41.05
2018-07-15T09:11:06.358Z,38.31
2018-07-15T09:13:12.341Z,37.75
2018-07-15T09:15:20.771Z,38.46
2018-07-15T09:17:29.477Z,38.31
2018-07-15T09:19:35.883Z,37.31
2018-07-15T09:21:43.064Z,36.67
2018-07-15T09:23:54.728Z,33.86
2018-07-15T09:26:06.897Z,34.85
2018-07-15T09:28:16.405Z,35.27
2018-07-15T09:30:23.301Z,35.07
2018-07-15T09:32:30.423Z,35.86
2018-07-15T09:34:37.934Z,34.67
2018-07-15T09:36:45.736Z,34.90
2018-07-15T09:38:53.673Z,35.59
2018-07-15T09:41:02.143Z,36.17
2018-07-15T09:43:14.084Z,35.25
2018-07-15T09:45:20.583Z,34.42
2018-07-15T09:47:27.111Z,34.93
2018-07-15T09:49:33.715Z,35.47
2018-07-15T09:51:42.902Z,35.44
2018-07-15T09:53:58.272Z,36.03
2018-07-15T09:56:18.382Z,35.29
2018-07-15T10:00:42.753Z,35.99
2018-07-15T10:02:55.985Z,36.20
2018-07-15T10:05:00.969Z,37.23
2018-07-15T10:07:06.856Z,37.77
2018-07-15T10:09:12.214Z,38.59
2018-07-15T10:11:17.691Z,37.45
2018-07-15T10:13:23.452Z,38.04
2018-07-15T10:15:28.746Z,37.41
2018-07-15T10:17:35.466Z,38.33
2018-07-15T10:19:42.526Z,38.25
2018-07-15T10:21:47.619Z,38.36
2018-07-15T10:23:52.553Z,39.10
2018-07-15T10:25:57.420Z,39.10
2018-07-15T10:28:02.994Z,44.08
2018-07-15T10:30:08.155Z,44.49
2018-07-15T10:32:13.425Z,45.22
2018-07-15T10:34:18.702Z,44.89
2018-07-15T10:36:23.863Z,44.85
2018-07-15T10:38:29.014Z,45.80
2018-07-15T10:40:33.501Z,45.40
2018-07-15T10:42:39.588Z,46.08
2018-07-15T10:44:46.628Z,46.97
2018-07-15T10:46:59.977Z,48.32
2018-07-15T10:49:09.058Z,44.71
2018-07-15T10:51:19.649Z,43.97
2018-07-15T10:53:24.867Z,44.51
2018-07-15T10:55:29.908Z,42.33
2018-07-15T10:57:35.524Z,41.25
2018-07-15T10:59:40.920Z,41.77
2018-07-15T11:01:46.108Z,42.24
2018-07-15T11:03:51.583Z,39.45
2018-07-15T11:05:56.456Z,39.54
2018-07-15T11:08:01.374Z,38.89
2018-07-15T11:10:06.513Z,39.73
2018-07-15T11:12:12.675Z,38.83
2018-07-15T11:14:18.960Z,38.90
2018-07-15T11:16:35.951Z,40.35
2018-07-15T11:18:40.821Z,39.24
2018-07-15T11:20:45.889Z,37.07
2018-07-15T11:22:50.809Z,37.39
2018-07-15T11:24:55.707Z,36.17
2018-07-15T11:27:01.024Z,36.46
2018-07-15T11:29:06.042Z,35.62
2018-07-15T11:31:11.522Z,35.77
2018-07-15T11:33:16.304Z,34.91
2018-07-15T11:35:21.241Z,33.51
2018-07-15T11:37:26.389Z,33.98
2018-07-15T11:39:31.285Z,33.91
2018-07-15T11:41:36.373Z,33.56
2018-07-15T11:43:41.318Z,34.48
2018-07-15T11:45:46.100Z,33.58
2018-07-15T11:47:51.477Z,35.89
2018-07-15T11:49:56.709Z,34.21
2018-07-15T11:52:01.665Z,34.16
2018-07-15T11:54:06.751Z,34.28
2018-07-15T11:56:11.789Z,33.72
2018-07-15T11:58:17.482Z,33.34
2018-07-15T12:00:22.340Z,33.47
2018-07-15T12:02:27.148Z,34.00
2018-07-15T12:04:32.249Z,33.50
2018-07-15T12:06:37.219Z,34.21
2018-07-15T12:08:42.441Z,33.45
2018-07-15T12:10:50.019Z,33.56
2018-07-15T12:12:54.887Z,33.79
2018-07-15T12:14:59.733Z,33.33
2018-07-15T12:17:04.931Z,32.61
2018-07-15T12:19:09.898Z,32.82
2018-07-15T12:21:15.157Z,33.97
2018-07-15T12:23:20.697Z,32.59
2018-07-15T12:25:26.283Z,32.95
2018-07-15T12:27:31.203Z,33.42
2018-07-15T12:29:36.045Z,33.63
2018-07-15T12:31:41.139Z,33.34
2018-07-15T12:33:46.548Z,32.16
2018-07-15T12:35:51.723Z,32.30
2018-07-15T12:37:56.476Z,32.08
2018-07-15T12:40:01.938Z,31.78
2018-07-15T12:42:08.664Z,32.37
2018-07-15T12:44:13.701Z,31.09
2018-07-15T12:46:18.600Z,31.65
2018-07-15T12:48:23.933Z,31.72
2018-07-15T12:50:28.880Z,32.13
2018-07-15T12:52:33.962Z,32.42
2018-07-15T12:54:39.909Z,32.96
2018-07-15T12:56:44.802Z,31.33
2018-07-15T12:58:50.603Z,31.64
2018-07-15T13:00:55.379Z,31.94
2018-07-15T13:03:00.140Z,31.92
2018-07-15T13:05:05.388Z,31.46
2018-07-15T13:07:10.225Z,31.38
2018-07-15T13:09:14.991Z,31.01
2018-07-15T13:11:21.948Z,30.04
2018-07-15T13:13:26.967Z,30.65
2018-07-15T13:15:32.021Z,30.88
2018-07-15T13:17:36.813Z,30.27
2018-07-15T13:19:41.889Z,29.48
2018-07-15T13:21:47.060Z,30.11
2018-07-15T13:23:52.063Z,29.17
2018-07-15T13:25:56.952Z,29.17
2018-07-15T13:28:02.613Z,29.05
2018-07-15T13:30:07.809Z,29.38
2018-07-15T13:32:12.967Z,29.04
2018-07-15T13:34:18.098Z,29.48
2018-07-15T13:36:23.106Z,28.61
2018-07-15T13:38:27.953Z,29.11
2018-07-15T13:40:33.105Z,29.18
2018-07-15T13:42:38.488Z,28.54
2018-07-15T13:44:44.055Z,29.86
2018-07-15T13:46:52.207Z,29.87
2018-07-15T13:48:57.289Z,30.11
2018-07-15T13:51:02.269Z,29.47
2018-07-15T13:53:07.404Z,29.79
2018-07-15T13:55:13.480Z,30.54
2018-07-15T13:57:18.490Z,28.69
2018-07-15T13:59:23.946Z,29.59
2018-07-15T14:01:32.573Z,30.75
2018-07-15T14:03:39.279Z,29.18
2018-07-15T14:05:49.255Z,29.17
2018-07-15T14:07:56.863Z,28.43
2018-07-15T14:10:04.795Z,28.43
2018-07-15T14:12:12.263Z,29.31
2018-07-15T14:14:17.947Z,29.04
2018-07-15T14:16:25.241Z,27.71
2018-07-15T14:18:30.508Z,28.96
2018-07-15T14:20:52.069Z,29.24
2018-07-15T14:22:56.926Z,29.49
2018-07-15T14:25:02.156Z,29.61
2018-07-15T14:27:07.032Z,28.25
2018-07-15T14:29:12.302Z,28.79
2018-07-15T14:31:17.175Z,28.20
2018-07-15T14:33:22.318Z,28.28
2018-07-15T14:35:27.338Z,28.81
2018-07-15T14:37:33.288Z,28.92
2018-07-15T14:39:40.520Z,27.64
2018-07-15T14:41:45.551Z,27.95
2018-07-15T14:43:50.812Z,27.54
2018-07-15T14:45:55.819Z,26.58
2018-07-15T14:48:00.431Z,27.42
2018-07-15T14:50:05.810Z,27.11
2018-07-15T14:52:10.920Z,27.92
2018-07-15T14:54:15.936Z,26.65
2018-07-15T14:56:21.372Z,27.68
2018-07-15T14:58:26.482Z,27.29
2018-07-15T15:00:32.845Z,27.27
2018-07-15T15:02:38.118Z,27.61
2018-07-15T15:04:43.307Z,27.05
2018-07-15T15:06:48.458Z,27.48
2018-07-15T15:08:53.503Z,27.35
2018-07-15T15:10:59.166Z,25.99
2018-07-15T15:13:04.300Z,26.42
2018-07-15T15:15:09.624Z,26.75
2018-07-15T15:17:14.653Z,26.70
2018-07-15T15:19:20.169Z,26.74
2018-07-15T15:21:25.616Z,26.47
2018-07-15T15:23:30.826Z,26.72
2018-07-15T15:25:36.583Z,26.34
2018-07-15T15:27:42.727Z,26.69
2018-07-15T15:29:48.221Z,26.41
2018-07-15T15:31:53.995Z,26.53
2018-07-15T15:33:58.937Z,26.88
2018-07-15T15:36:05.991Z,26.83
2018-07-15T15:38:12.983Z,26.60
2018-07-15T15:40:18.695Z,27.14
2018-07-15T15:42:24.576Z,26.76
2018-07-15T15:44:29.971Z,26.30
2018-07-15T15:46:34.883Z,27.11
2018-07-15T15:48:40.701Z,26.83
2018-07-15T15:50:46.985Z,26.48
2018-07-15T15:52:52.403Z,25.74
2018-07-15T15:54:57.209Z,26.67
2018-07-15T15:57:02.266Z,25.73
2018-07-15T15:59:08.019Z,25.64
2018-07-15T16:01:13.526Z,26.06
2018-07-15T16:03:19.416Z,26.49
2018-07-15T16:05:24.195Z,26.00
2018-07-15T16:07:30.113Z,25.76
2018-07-15T16:09:35.258Z,25.54
2018-07-15T16:11:40.772Z,25.85
2018-07-15T16:13:49.317Z,25.20
2018-07-15T16:15:54.387Z,25.66
2018-07-15T16:17:59.304Z,25.38
2018-07-15T16:20:05.109Z,25.64
2018-07-15T16:22:10.030Z,24.85
2018-07-15T16:24:14.931Z,25.00
2018-07-15T16:26:20.213Z,24.73
2018-07-15T16:28:24.940Z,26.02
2018-07-15T16:30:29.964Z,25.40
2018-07-15T16:32:34.985Z,25.28
2018-07-15T16:34:39.873Z,24.88
2018-07-15T16:36:44.801Z,24.17
2018-07-15T16:38:49.997Z,24.43
2018-07-15T16:40:55.002Z,24.31
2018-07-15T16:43:03.021Z,24.01
2018-07-15T16:45:08.441Z,23.41
2018-07-15T16:47:14.090Z,24.17
2018-07-15T16:49:19.060Z,23.71
2018-07-15T16:51:24.311Z,22.71
2018-07-15T16:53:30.296Z,23.32
2018-07-15T16:55:35.595Z,22.18
2018-07-15T16:57:42.553Z,22.75
2018-07-15T16:59:47.617Z,21.05
2018-07-15T17:01:52.549Z,19.92
2018-07-15T17:03:58.477Z,19.78
2018-07-15T17:06:03.659Z,19.71
2018-07-15T17:08:08.561Z,19.27
2018-07-15T17:10:13.828Z,18.92
2018-07-15T17:12:19.149Z,19.29
2018-07-15T17:14:24.096Z,19.50
2018-07-15T17:16:29.204Z,20.54
2018-07-15T17:18:34.026Z,20.01
2018-07-15T17:20:39.069Z,20.03
2018-07-15T17:22:43.936Z,19.16
2018-07-15T17:24:49.191Z,20.41
2018-07-15T17:26:54.324Z,20.10
2018-07-15T17:28:59.264Z,19.95
2018-07-15T17:31:04.240Z,19.43
2018-07-15T17:33:10.683Z,20.30
2018-07-15T17:35:15.714Z,20.31
2018-07-15T17:37:20.688Z,19.91
2018-07-15T17:39:25.808Z,20.21
2018-07-15T17:41:31.089Z,20.98
2018-07-15T17:43:35.761Z,20.85
2018-07-15T17:45:43.590Z,20.92
2018-07-15T17:47:48.796Z,20.55
2018-07-15T17:49:54.070Z,21.32
2018-07-15T17:51:59.581Z,21.26
2018-07-15T17:54:04.699Z,21.03
2018-07-15T17:56:09.980Z,22.06
2018-07-15T17:58:15.252Z,21.77
2018-07-15T18:00:21.047Z,21.64
2018-07-15T18:02:25.993Z,21.90
2018-07-15T18:04:30.860Z,22.07
2018-07-15T18:06:36.572Z,23.36
2018-07-15T18:08:43.717Z,22.31
2018-07-15T18:10:49.030Z,22.69
2018-07-15T18:12:54.115Z,22.62
2018-07-15T18:14:59.351Z,23.31
2018-07-15T18:17:05.610Z,22.78
2018-07-15T18:19:11.332Z,23.76
2018-07-15T18:21:17.187Z,22.67
2018-07-15T18:23:23.856Z,23.77
2018-07-15T18:25:29.061Z,23.58
2018-07-15T18:27:36.782Z,23.30
2018-07-15T18:29:42.530Z,25.16
2018-07-15T18:31:48.178Z,25.33
2018-07-15T18:33:54.560Z,26.04
2018-07-15T18:36:03.685Z,26.11
2018-07-15T18:38:10.916Z,25.90
2018-07-15T18:40:18.315Z,26.55
2018-07-15T18:42:25.528Z,27.06
2018-07-15T18:44:33.396Z,26.93
2018-07-15T18:46:40.612Z,28.09
2018-07-15T18:48:48.443Z,28.51
2018-07-15T18:50:55.457Z,27.90
2018-07-15T18:53:03.492Z,27.76
2018-07-15T18:55:11.462Z,28.10
2018-07-15T18:57:19.248Z,28.50
2018-07-15T18:59:24.873Z,29.30
2018-07-15T19:01:31.597Z,29.16
2018-07-15T19:03:38.345Z,29.63
2018-07-15T19:05:44.937Z,30.09
2018-07-15T19:07:51.392Z,29.74
2018-07-15T19:09:58.950Z,29.87
2018-07-15T19:12:04.225Z,30.06
2018-07-15T19:14:10.697Z,30.70
2018-07-15T19:16:17.173Z,30.78
2018-07-15T19:18:24.202Z,30.56
2018-07-15T19:20:30.408Z,31.28
2018-07-15T19:22:37.437Z,31.03
2018-07-15T19:24:43.096Z,31.99
2018-07-15T19:26:49.451Z,32.31
2018-07-15T19:28:56.767Z,31.88
2018-07-15T19:31:02.193Z,32.10
2018-07-15T19:33:08.164Z,32.28
2018-07-15T19:35:17.597Z,32.88
2018-07-15T19:37:27.621Z,33.33
2018-07-15T19:39:35.008Z,32.54
2018-07-15T19:41:42.291Z,33.00
2018-07-15T19:43:51.554Z,33.71
2018-07-15T19:45:59.916Z,33.60
2018-07-15T19:48:09.720Z,33.79
2018-07-15T19:50:25.746Z,33.98
2018-07-15T19:52:31.726Z,33.55
2018-07-15T19:54:56.191Z,33.99
2018-07-15T19:57:04.356Z,33.62
2018-07-15T19:59:16.774Z,34.31
2018-07-15T20:01:26.457Z,34.39
2018-07-15T20:03:33.272Z,34.58
2018-07-15T20:05:39.224Z,34.92
2018-07-15T20:07:45.456Z,34.53
2018-07-15T20:09:54.718Z,34.71
2018-07-15T20:12:00.721Z,34.67
2018-07-15T20:14:19.113Z,34.77
2018-07-15T20:16:27.569Z,35.50
2018-07-15T20:18:33.269Z,35.29
2018-07-15T20:20:47.695Z,36.42
2018-07-15T20:22:53.926Z,35.81
2018-07-15T20:25:13.116Z,36.32
2018-07-15T20:27:20.488Z,36.87
2018-07-15T20:29:27.452Z,36.92
2018-07-15T20:31:36.150Z,36.98
2018-07-15T20:33:45.915Z,36.42
2018-07-15T20:35:52.465Z,36.37
2018-07-15T20:38:00.213Z,37.15
2018-07-15T20:40:05.602Z,36.50
2018-07-15T20:42:10.741Z,37.38
2018-07-15T20:44:16.362Z,37.43
2018-07-15T20:46:21.746Z,37.51
2018-07-15T20:48:26.752Z,37.35
2018-07-15T20:50:32.161Z,37.61
2018-07-15T20:52:37.703Z,37.05
2018-07-15T20:54:42.685Z,37.97
2018-07-15T20:56:47.778Z,37.96
2018-07-15T20:58:52.588Z,38.13
2018-07-15T21:00:57.893Z,38.00
2018-07-15T21:03:03.222Z,37.89
2018-07-15T21:05:08.762Z,38.66
2018-07-15T21:07:16.014Z,38.22
2018-07-15T21:09:20.983Z,38.44
2018-07-15T21:11:26.474Z,38.85
2018-07-15T21:13:31.742Z,38.76
2018-07-15T21:15:36.744Z,38.64
2018-07-15T21:17:42.335Z,38.69
2018-07-15T21:19:47.379Z,39.52
2018-07-15T21:21:52.584Z,39.16
2018-07-15T21:23:57.600Z,39.22
2018-07-15T21:26:02.549Z,39.39
2018-07-15T21:28:08.194Z,39.51
2018-07-15T21:30:13.288Z,40.23
2018-07-15T21:32:18.591Z,40.31
2018-07-15T21:34:24.039Z,40.12
2018-07-15T21:36:29.302Z,40.85
2018-07-15T21:38:34.273Z,41.28
2018-07-15T21:40:39.653Z,41.56
2018-07-15T21:42:44.631Z,41.11
2018-07-15T21:44:49.710Z,40.22
2018-07-15T21:46:54.944Z,41.21
2018-07-15T21:49:00.338Z,40.89
2018-07-15T21:51:04.924Z,40.68
2018-07-15T21:53:09.986Z,40.94
2018-07-15T21:55:15.941Z,40.28
2018-07-15T21:57:21.117Z,40.88
2018-07-15T21:59:26.222Z,41.48
2018-07-15T22:01:40.438Z,41.36
2018-07-15T22:03:45.447Z,41.87
2018-07-15T22:05:52.205Z,41.34
2018-07-15T22:08:14.414Z,41.64
2018-07-15T22:10:33.773Z,41.77
2018-07-15T22:12:38.734Z,42.31
2018-07-15T22:14:43.679Z,42.41
2018-07-15T22:16:48.657Z,42.58
2018-07-15T22:18:53.566Z,43.02
2018-07-15T22:20:58.839Z,43.13
2018-07-15T22:23:03.700Z,43.21
2018-07-15T22:25:08.959Z,43.43
2018-07-15T22:27:14.287Z,43.17
2018-07-15T22:29:19.305Z,43.64
2018-07-15T22:31:24.976Z,43.39
2018-07-15T22:33:29.994Z,43.98
2018-07-15T22:35:35.213Z,44.38
2018-07-15T22:37:40.685Z,44.62
2018-07-15T22:39:45.673Z,44.50
2018-07-15T22:41:50.485Z,44.28
2018-07-15T22:43:55.258Z,44.41
2018-07-15T22:46:00.154Z,44.89
2018-07-15T22:48:05.073Z,45.07
2018-07-15T22:50:09.900Z,44.99
2018-07-15T22:52:14.977Z,45.20
2018-07-15T22:54:19.826Z,45.12
2018-07-15T22:56:24.612Z,44.65
2018-07-15T22:58:29.270Z,44.58
2018-07-15T23:00:34.154Z,44.79
2018-07-15T23:02:38.993Z,44.21
2018-07-15T23:05:58.225Z,44.31
2018-07-15T23:08:03.505Z,44.47
2018-07-15T23:10:08.228Z,44.40
2018-07-15T23:12:13.168Z,44.16
2018-07-15T23:14:18.282Z,44.79
2018-07-15T23:16:23.334Z,44.39
2018-07-15T23:18:28.477Z,44.74
2018-07-15T23:20:34.365Z,44.34
2018-07-15T23:22:39.360Z,44.54
2018-07-15T23:24:44.311Z,44.98
2018-07-15T23:26:49.083Z,45.03
2018-07-15T23:28:53.852Z,45.27
2018-07-15T23:30:58.599Z,44.85
2018-07-15T23:33:04.109Z,45.13
2018-07-15T23:35:09.309Z,45.62
2018-07-15T23:37:14.294Z,44.96
2018-07-15T23:39:19.473Z,45.42
2018-07-15T23:41:24.628Z,45.58
2018-07-15T23:43:29.533Z,45.18
2018-07-15T23:45:35.127Z,45.51
2018-07-15T23:47:40.276Z,45.76
2018-07-15T23:49:45.279Z,45.50
2018-07-15T23:51:50.103Z,45.98
2018-07-15T23:53:55.304Z,45.99
2018-07-15T23:56:00.166Z,45.84
2018-07-15T23:58:04.971Z,45.96
